OAL942 LGAL-LGSA
Flight info
| Callsign | OAL942 |
|---|---|
| Flight time | 1h 0m |
| Altitude | 28000 |
| Route | LMO UG33 KEA UL617 MIL UJ56 RESTI J56 RUSOS |
| Aircraft | A319/M-SDE3FGHIRWY/LB1 |
Departure
| Time | 2026-05-05 20:05 |
|---|---|
| Airport | Alexandroupoli Democritus Airport (LGAL) |
Arrival
| Time | 2026-05-05 21:05 |
|---|---|
| Airport | Chania International Airport (LGSA) |
| Time | Latitude | Longitude | Altitude | Speed | Heading |
|---|---|---|---|---|---|
| 2026-05-05 20:01 | 40.85576 | 25.94515 | 20 ft | 0 kts | 73° |
| 2026-05-05 20:03 | 40.85578 | 25.94525 | 20 ft | 2 kts | 73° |
| 2026-05-05 20:04 | 40.85574 | 25.94593 | 20 ft | 15 kts | 102° |
| 2026-05-05 20:04 | 40.85527 | 25.94743 | 20 ft | 19 kts | 119° |
| 2026-05-05 20:04 | 40.85451 | 25.94914 | 18 ft | 23 kts | 118° |
| 2026-05-05 20:04 | 40.85511 | 25.95359 | 19 ft | 84 kts | 75° |
| 2026-05-05 20:05 | 40.85755 | 25.96382 | 28 ft | 145 kts | 72° |
| 2026-05-05 20:05 | 40.86100 | 25.97757 | 448 ft | 159 kts | 69° |
| 2026-05-05 20:05 | 40.86473 | 25.99148 | 998 ft | 164 kts | 81° |
| 2026-05-05 20:05 | 40.86211 | 26.00547 | 1549 ft | 166 kts | 134° |
| 2026-05-05 20:06 | 40.85171 | 26.01132 | 2005 ft | 171 kts | 186° |
| 2026-05-05 20:06 | 40.84050 | 26.00548 | 2330 ft | 184 kts | 220° |
| 2026-05-05 20:06 | 40.83316 | 25.99127 | 2642 ft | 198 kts | 255° |
| 2026-05-05 20:06 | 40.82997 | 25.97299 | 2969 ft | 212 kts | 257° |
| 2026-05-05 20:07 | 40.82599 | 25.95319 | 3342 ft | 233 kts | 255° |
| 2026-05-05 20:07 | 40.82116 | 25.93270 | 4172 ft | 236 kts | 250° |
| 2026-05-05 20:07 | 40.81145 | 25.91478 | 4697 ft | 255 kts | 220° |
| 2026-05-05 20:07 | 40.79622 | 25.90216 | 5288 ft | 269 kts | 210° |
| 2026-05-05 20:08 | 40.77896 | 25.89056 | 5763 ft | 287 kts | 208° |
| 2026-05-05 20:08 | 40.76072 | 25.87819 | 6213 ft | 305 kts | 210° |
| 2026-05-05 20:08 | 40.74155 | 25.86460 | 6637 ft | 323 kts | 211° |
| 2026-05-05 20:08 | 40.72136 | 25.84975 | 7042 ft | 341 kts | 211° |
| 2026-05-05 20:09 | 40.70023 | 25.83391 | 7400 ft | 358 kts | 212° |
| 2026-05-05 20:09 | 40.67801 | 25.81713 | 7746 ft | 375 kts | 212° |
| 2026-05-05 20:09 | 40.65520 | 25.79987 | 8342 ft | 383 kts | 212° |
| 2026-05-05 20:09 | 40.63203 | 25.78236 | 9056 ft | 386 kts | 212° |
| 2026-05-05 20:10 | 40.60875 | 25.76477 | 9732 ft | 391 kts | 212° |
| 2026-05-05 20:10 | 40.58521 | 25.74698 | 10386 ft | 395 kts | 212° |
| 2026-05-05 20:10 | 40.56121 | 25.72883 | 11051 ft | 399 kts | 212° |
| 2026-05-05 20:10 | 40.53724 | 25.71035 | 11710 ft | 402 kts | 212° |
| 2026-05-05 20:11 | 40.51291 | 25.69149 | 12351 ft | 406 kts | 213° |
| 2026-05-05 20:11 | 40.48861 | 25.67264 | 12967 ft | 410 kts | 213° |
| 2026-05-05 20:11 | 40.46403 | 25.65361 | 13576 ft | 413 kts | 213° |
| 2026-05-05 20:11 | 40.43924 | 25.63445 | 14177 ft | 416 kts | 213° |
| 2026-05-05 20:12 | 40.41436 | 25.61525 | 14727 ft | 420 kts | 213° |
| 2026-05-05 20:12 | 40.38924 | 25.59587 | 15279 ft | 423 kts | 213° |
| 2026-05-05 20:12 | 40.36362 | 25.57615 | 15856 ft | 425 kts | 213° |
| 2026-05-05 20:12 | 40.33818 | 25.55659 | 16408 ft | 428 kts | 213° |
| 2026-05-05 20:13 | 40.31262 | 25.53695 | 16943 ft | 430 kts | 213° |
| 2026-05-05 20:13 | 40.28684 | 25.51718 | 17448 ft | 432 kts | 213° |
| 2026-05-05 20:13 | 40.26089 | 25.49729 | 17926 ft | 435 kts | 213° |
| 2026-05-05 20:13 | 40.23473 | 25.47724 | 18387 ft | 438 kts | 213° |
| 2026-05-05 20:14 | 40.20844 | 25.45713 | 18851 ft | 440 kts | 213° |
| 2026-05-05 20:14 | 40.18198 | 25.43688 | 19284 ft | 443 kts | 213° |
| 2026-05-05 20:14 | 40.15534 | 25.41654 | 19701 ft | 446 kts | 214° |
| 2026-05-05 20:14 | 40.12853 | 25.39606 | 20122 ft | 449 kts | 214° |
| 2026-05-05 20:15 | 40.10155 | 25.37549 | 20523 ft | 453 kts | 214° |
| 2026-05-05 20:15 | 40.07423 | 25.35466 | 20918 ft | 456 kts | 214° |
| 2026-05-05 20:15 | 40.04657 | 25.33358 | 21306 ft | 458 kts | 213° |
| 2026-05-05 20:15 | 40.01916 | 25.31274 | 21670 ft | 461 kts | 213° |
| 2026-05-05 20:16 | 39.99133 | 25.29162 | 22012 ft | 465 kts | 213° |
| 2026-05-05 20:16 | 39.96321 | 25.27027 | 22364 ft | 468 kts | 213° |
| 2026-05-05 20:16 | 39.93482 | 25.25022 | 22709 ft | 472 kts | 210° |
| 2026-05-05 20:16 | 39.90456 | 25.23261 | 23055 ft | 477 kts | 205° |
| 2026-05-05 20:17 | 39.87283 | 25.21806 | 23374 ft | 482 kts | 200° |
| 2026-05-05 20:17 | 39.84076 | 25.20524 | 23671 ft | 485 kts | 200° |
| 2026-05-05 20:17 | 39.80872 | 25.19280 | 23960 ft | 488 kts | 200° |
| 2026-05-05 20:17 | 39.77586 | 25.18007 | 24296 ft | 490 kts | 200° |
| 2026-05-05 20:18 | 39.74348 | 25.16743 | 24601 ft | 492 kts | 200° |
| 2026-05-05 20:18 | 39.71041 | 25.15445 | 24899 ft | 494 kts | 200° |
| 2026-05-05 20:18 | 39.67707 | 25.14388 | 25193 ft | 499 kts | 194° |
| 2026-05-05 20:18 | 39.64274 | 25.13618 | 25505 ft | 502 kts | 192° |
| 2026-05-05 20:19 | 39.60818 | 25.12924 | 25762 ft | 505 kts | 192° |
| 2026-05-05 20:19 | 39.57347 | 25.12226 | 26016 ft | 507 kts | 192° |
| 2026-05-05 20:19 | 39.53874 | 25.11507 | 26279 ft | 509 kts | 193° |
| 2026-05-05 20:19 | 39.50363 | 25.10760 | 26520 ft | 511 kts | 193° |
| 2026-05-05 20:20 | 39.46865 | 25.10003 | 26764 ft | 512 kts | 193° |
| 2026-05-05 20:20 | 39.43335 | 25.09230 | 26980 ft | 514 kts | 194° |
| 2026-05-05 20:20 | 39.39800 | 25.08450 | 27193 ft | 516 kts | 194° |
| 2026-05-05 20:20 | 39.36272 | 25.07671 | 27380 ft | 518 kts | 194° |
| 2026-05-05 20:21 | 39.32711 | 25.06885 | 27589 ft | 519 kts | 194° |
| 2026-05-05 20:21 | 39.29171 | 25.06104 | 27794 ft | 521 kts | 194° |
| 2026-05-05 20:21 | 39.25605 | 25.05316 | 27968 ft | 522 kts | 194° |
| 2026-05-05 20:22 | 39.18441 | 25.03739 | 28024 ft | 523 kts | 194° |
| 2026-05-05 20:22 | 39.11243 | 25.02157 | 28028 ft | 523 kts | 194° |
| 2026-05-05 20:23 | 39.04078 | 25.00586 | 28028 ft | 523 kts | 194° |
| 2026-05-05 20:23 | 38.96937 | 24.99023 | 28029 ft | 523 kts | 194° |
| 2026-05-05 20:24 | 38.89748 | 24.97452 | 28031 ft | 523 kts | 194° |
| 2026-05-05 20:24 | 38.82623 | 24.95901 | 28032 ft | 522 kts | 194° |
| 2026-05-05 20:25 | 38.75443 | 24.94338 | 28033 ft | 522 kts | 194° |
| 2026-05-05 20:25 | 38.68280 | 24.92782 | 28035 ft | 523 kts | 194° |
| 2026-05-05 20:26 | 38.61137 | 24.91234 | 28038 ft | 523 kts | 194° |
| 2026-05-05 20:26 | 38.53966 | 24.89685 | 28036 ft | 522 kts | 194° |
| 2026-05-05 20:27 | 38.46811 | 24.88140 | 28038 ft | 522 kts | 194° |
| 2026-05-05 20:27 | 38.39642 | 24.86597 | 28042 ft | 522 kts | 194° |
| 2026-05-05 20:28 | 38.32501 | 24.85065 | 28043 ft | 522 kts | 194° |
| 2026-05-05 20:28 | 38.25344 | 24.83529 | 28044 ft | 521 kts | 195° |
| 2026-05-05 20:29 | 38.18224 | 24.82006 | 28045 ft | 521 kts | 195° |
| 2026-05-05 20:29 | 38.11074 | 24.80479 | 28047 ft | 520 kts | 195° |
| 2026-05-05 20:30 | 38.03941 | 24.78958 | 28046 ft | 520 kts | 195° |
| 2026-05-05 20:30 | 37.96791 | 24.77436 | 28047 ft | 521 kts | 195° |
| 2026-05-05 20:31 | 37.89645 | 24.75919 | 28042 ft | 520 kts | 195° |
| 2026-05-05 20:31 | 37.82507 | 24.74406 | 28044 ft | 521 kts | 195° |
| 2026-05-05 20:32 | 37.75356 | 24.72896 | 28044 ft | 520 kts | 195° |
| 2026-05-05 20:32 | 37.68225 | 24.71392 | 28044 ft | 519 kts | 195° |
| 2026-05-05 20:33 | 37.61151 | 24.69902 | 28043 ft | 519 kts | 195° |
| 2026-05-05 20:33 | 37.54018 | 24.68401 | 28043 ft | 520 kts | 195° |
| 2026-05-05 20:34 | 37.46872 | 24.66903 | 28039 ft | 519 kts | 195° |
| 2026-05-05 20:34 | 37.39727 | 24.65409 | 28039 ft | 519 kts | 195° |
| 2026-05-05 20:35 | 37.32627 | 24.63921 | 28042 ft | 519 kts | 195° |
| 2026-05-05 20:35 | 37.29158 | 24.63206 | 28195 ft | 487 kts | 195° |
| 2026-05-05 20:35 | 37.25940 | 24.62557 | 28173 ft | 456 kts | 196° |
| 2026-05-05 20:35 | 37.22923 | 24.61940 | 28088 ft | 429 kts | 197° |
| 2026-05-05 20:36 | 37.20038 | 24.61347 | 28055 ft | 403 kts | 197° |
| 2026-05-05 20:36 | 37.17361 | 24.60790 | 28031 ft | 379 kts | 198° |
| 2026-05-05 20:36 | 37.14838 | 24.60270 | 28021 ft | 357 kts | 198° |
| 2026-05-05 20:37 | 37.10022 | 24.59249 | 28035 ft | 348 kts | 198° |
| 2026-05-05 20:37 | 37.05267 | 24.58243 | 28040 ft | 347 kts | 198° |
| 2026-05-05 20:38 | 37.00481 | 24.57241 | 27937 ft | 358 kts | 198° |
| 2026-05-05 20:38 | 36.95434 | 24.56179 | 28031 ft | 382 kts | 198° |
| 2026-05-05 20:38 | 36.92742 | 24.55616 | 28040 ft | 396 kts | 197° |
| 2026-05-05 20:39 | 36.89972 | 24.55043 | 28044 ft | 410 kts | 197° |
| 2026-05-05 20:39 | 36.87127 | 24.54460 | 28042 ft | 423 kts | 197° |
| 2026-05-05 20:39 | 36.84173 | 24.53855 | 28042 ft | 435 kts | 196° |
| 2026-05-05 20:39 | 36.81152 | 24.53236 | 28049 ft | 447 kts | 196° |
| 2026-05-05 20:40 | 36.78049 | 24.52601 | 28048 ft | 458 kts | 196° |
| 2026-05-05 20:40 | 36.71684 | 24.51061 | 28050 ft | 475 kts | 199° |
| 2026-05-05 20:41 | 36.65140 | 24.49187 | 28041 ft | 493 kts | 199° |
| 2026-05-05 20:41 | 36.58315 | 24.47235 | 28054 ft | 508 kts | 199° |
| 2026-05-05 20:42 | 36.51426 | 24.45279 | 28058 ft | 514 kts | 199° |
| 2026-05-05 20:42 | 36.44443 | 24.43302 | 28060 ft | 514 kts | 199° |
| 2026-05-05 20:43 | 36.37453 | 24.41322 | 28069 ft | 513 kts | 199° |
| 2026-05-05 20:43 | 36.30531 | 24.39368 | 28072 ft | 512 kts | 199° |
| 2026-05-05 20:44 | 36.23603 | 24.37415 | 28071 ft | 511 kts | 199° |
| 2026-05-05 20:44 | 36.16625 | 24.35447 | 28077 ft | 512 kts | 199° |
| 2026-05-05 20:45 | 36.06335 | 24.32565 | 27984 ft | 490 kts | 198° |
| 2026-05-05 20:45 | 36.03061 | 24.31654 | 27380 ft | 475 kts | 199° |
| 2026-05-05 20:45 | 35.99873 | 24.30758 | 26378 ft | 463 kts | 199° |
| 2026-05-05 20:46 | 35.96802 | 24.29815 | 25314 ft | 453 kts | 200° |
| 2026-05-05 20:46 | 35.93779 | 24.28820 | 23958 ft | 450 kts | 201° |
| 2026-05-05 20:46 | 35.90797 | 24.27827 | 22774 ft | 443 kts | 200° |
| 2026-05-05 20:46 | 35.87885 | 24.26870 | 21772 ft | 432 kts | 200° |
| 2026-05-05 20:47 | 35.85012 | 24.25937 | 20725 ft | 424 kts | 200° |
| 2026-05-05 20:47 | 35.82182 | 24.25021 | 19676 ft | 417 kts | 199° |
| 2026-05-05 20:47 | 35.79436 | 24.24157 | 19162 ft | 401 kts | 199° |
| 2026-05-05 20:47 | 35.76771 | 24.23343 | 18748 ft | 391 kts | 198° |
| 2026-05-05 20:48 | 35.74154 | 24.22547 | 18332 ft | 383 kts | 199° |
| 2026-05-05 20:48 | 35.71595 | 24.21764 | 17919 ft | 377 kts | 199° |
| 2026-05-05 20:48 | 35.69049 | 24.20985 | 17521 ft | 375 kts | 199° |
| 2026-05-05 20:48 | 35.66527 | 24.20210 | 17122 ft | 372 kts | 198° |
| 2026-05-05 20:49 | 35.64038 | 24.19448 | 16712 ft | 369 kts | 198° |
| 2026-05-05 20:49 | 35.61537 | 24.18683 | 16307 ft | 366 kts | 198° |
| 2026-05-05 20:49 | 35.59089 | 24.17934 | 15908 ft | 363 kts | 198° |
| 2026-05-05 20:49 | 35.56653 | 24.17190 | 15508 ft | 360 kts | 197° |
| 2026-05-05 20:50 | 35.54206 | 24.16635 | 15082 ft | 362 kts | 182° |
| 2026-05-05 20:50 | 35.51739 | 24.17209 | 14668 ft | 361 kts | 156° |
| 2026-05-05 20:50 | 35.49694 | 24.18920 | 14275 ft | 355 kts | 133° |
| 2026-05-05 20:50 | 35.48034 | 24.21137 | 13909 ft | 352 kts | 129° |
| 2026-05-05 20:51 | 35.46425 | 24.23366 | 13537 ft | 349 kts | 129° |
| 2026-05-05 20:51 | 35.44801 | 24.25586 | 13155 ft | 347 kts | 130° |
| 2026-05-05 20:51 | 35.43195 | 24.27741 | 12766 ft | 345 kts | 130° |
| 2026-05-05 20:51 | 35.41557 | 24.29913 | 12358 ft | 344 kts | 131° |
| 2026-05-05 20:52 | 35.39933 | 24.32052 | 11939 ft | 343 kts | 131° |
| 2026-05-05 20:52 | 35.38329 | 24.34156 | 11555 ft | 341 kts | 130° |
| 2026-05-05 20:52 | 35.36716 | 24.36270 | 11160 ft | 340 kts | 130° |
| 2026-05-05 20:52 | 35.35100 | 24.38385 | 10770 ft | 338 kts | 130° |
| 2026-05-05 20:53 | 35.33456 | 24.40438 | 10463 ft | 334 kts | 132° |
| 2026-05-05 20:53 | 35.31832 | 24.42402 | 10327 ft | 322 kts | 133° |
| 2026-05-05 20:53 | 35.30277 | 24.44275 | 10225 ft | 308 kts | 132° |
| 2026-05-05 20:53 | 35.28791 | 24.46064 | 10117 ft | 295 kts | 132° |
| 2026-05-05 20:54 | 35.27321 | 24.47837 | 9820 ft | 293 kts | 132° |
| 2026-05-05 20:54 | 35.26008 | 24.49699 | 9446 ft | 286 kts | 113° |
| 2026-05-05 20:54 | 35.25559 | 24.51959 | 9111 ft | 271 kts | 83° |
| 2026-05-05 20:54 | 35.26019 | 24.54121 | 8775 ft | 259 kts | 57° |
| 2026-05-05 20:55 | 35.27128 | 24.55752 | 8456 ft | 249 kts | 36° |
| 2026-05-05 20:55 | 35.28518 | 24.56992 | 8162 ft | 246 kts | 33° |
| 2026-05-05 20:55 | 35.29906 | 24.58175 | 7863 ft | 244 kts | 31° |
| 2026-05-05 20:55 | 35.31337 | 24.59304 | 7565 ft | 243 kts | 29° |
| 2026-05-05 20:56 | 35.32785 | 24.60337 | 7268 ft | 240 kts | 24° |
| 2026-05-05 20:56 | 35.34370 | 24.60906 | 6930 ft | 238 kts | 3° |
| 2026-05-05 20:56 | 35.36002 | 24.60620 | 6593 ft | 238 kts | 339° |
| 2026-05-05 20:56 | 35.37379 | 24.59498 | 6263 ft | 243 kts | 315° |
| 2026-05-05 20:57 | 35.38261 | 24.57746 | 6023 ft | 242 kts | 297° |
| 2026-05-05 20:57 | 35.38909 | 24.55900 | 6047 ft | 223 kts | 296° |
| 2026-05-05 20:57 | 35.39513 | 24.54232 | 5988 ft | 208 kts | 298° |
| 2026-05-05 20:57 | 35.40109 | 24.52673 | 5745 ft | 202 kts | 299° |
| 2026-05-05 20:58 | 35.40702 | 24.51135 | 5509 ft | 195 kts | 298° |
| 2026-05-05 20:58 | 35.41268 | 24.49664 | 5288 ft | 189 kts | 298° |
| 2026-05-05 20:58 | 35.41817 | 24.48238 | 5077 ft | 182 kts | 298° |
| 2026-05-05 20:58 | 35.42342 | 24.46869 | 4885 ft | 173 kts | 298° |
| 2026-05-05 20:59 | 35.42843 | 24.45564 | 4678 ft | 164 kts | 298° |
| 2026-05-05 20:59 | 35.43317 | 24.44334 | 4498 ft | 160 kts | 298° |
| 2026-05-05 20:59 | 35.43798 | 24.43088 | 4321 ft | 160 kts | 298° |
| 2026-05-05 20:59 | 35.44271 | 24.41864 | 4147 ft | 160 kts | 297° |
| 2026-05-05 21:00 | 35.44746 | 24.40628 | 3965 ft | 159 kts | 297° |
| 2026-05-05 21:00 | 35.45216 | 24.39401 | 3786 ft | 159 kts | 295° |
| 2026-05-05 21:00 | 35.45639 | 24.38155 | 3699 ft | 159 kts | 293° |
| 2026-05-05 21:00 | 35.46043 | 24.36898 | 3616 ft | 158 kts | 293° |
| 2026-05-05 21:01 | 35.46430 | 24.35688 | 3506 ft | 145 kts | 293° |
| 2026-05-05 21:01 | 35.46798 | 24.34546 | 3430 ft | 143 kts | 294° |
| 2026-05-05 21:01 | 35.47174 | 24.33423 | 3290 ft | 142 kts | 294° |
| 2026-05-05 21:01 | 35.47547 | 24.32319 | 3108 ft | 142 kts | 294° |
| 2026-05-05 21:02 | 35.47921 | 24.31193 | 2919 ft | 141 kts | 292° |
| 2026-05-05 21:02 | 35.48283 | 24.30087 | 2733 ft | 141 kts | 292° |
| 2026-05-05 21:02 | 35.48645 | 24.28966 | 2546 ft | 140 kts | 292° |
| 2026-05-05 21:02 | 35.49006 | 24.27848 | 2364 ft | 140 kts | 291° |
| 2026-05-05 21:03 | 35.49361 | 24.26747 | 2181 ft | 139 kts | 292° |
| 2026-05-05 21:03 | 35.49719 | 24.25636 | 1994 ft | 139 kts | 292° |
| 2026-05-05 21:03 | 35.50071 | 24.24547 | 1814 ft | 138 kts | 292° |
| 2026-05-05 21:03 | 35.50426 | 24.23449 | 1632 ft | 138 kts | 292° |
| 2026-05-05 21:04 | 35.50782 | 24.22349 | 1447 ft | 138 kts | 292° |
| 2026-05-05 21:04 | 35.51133 | 24.21265 | 1266 ft | 137 kts | 292° |
| 2026-05-05 21:04 | 35.51485 | 24.20179 | 1084 ft | 137 kts | 292° |
| 2026-05-05 21:04 | 35.51836 | 24.19097 | 904 ft | 136 kts | 291° |
| 2026-05-05 21:05 | 35.52185 | 24.18022 | 721 ft | 136 kts | 292° |
| 2026-05-05 21:05 | 35.52534 | 24.16951 | 549 ft | 135 kts | 291° |
| 2026-05-05 21:05 | 35.52851 | 24.15965 | 472 ft | 91 kts | 293° |
| 2026-05-05 21:05 | 35.52976 | 24.15580 | 467 ft | 7 kts | 293° |
| 2026-05-05 21:06 | 35.52977 | 24.15578 | 467 ft | 0 kts | 293° |
| 2026-05-05 21:06 | 35.53022 | 24.15447 | 466 ft | 34 kts | 290° |
| 2026-05-05 21:06 | 35.53104 | 24.15197 | 464 ft | 13 kts | 291° |
| 2026-05-05 21:06 | 35.53192 | 24.15141 | 460 ft | 22 kts | 11° |
| 2026-05-05 21:07 | 35.53300 | 24.15103 | 453 ft | 15 kts | 270° |
| 2026-05-05 21:07 | 35.53365 | 24.14954 | 450 ft | 25 kts | 291° |
| 2026-05-05 21:07 | 35.53443 | 24.14712 | 444 ft | 35 kts | 291° |
| 2026-05-05 21:07 | 35.53522 | 24.14468 | 438 ft | 15 kts | 292° |
| 2026-05-05 21:08 | 35.53586 | 24.14346 | 433 ft | 18 kts | 359° |
| 2026-05-05 21:08 | 35.53701 | 24.14304 | 428 ft | 20 kts | 290° |
| 2026-05-05 21:08 | 35.53754 | 24.14142 | 425 ft | 15 kts | 290° |
| 2026-05-05 21:08 | 35.53807 | 24.14087 | 424 ft | 10 kts | 20° |
| 2026-05-05 21:09 | 35.53827 | 24.14095 | 423 ft | 9 kts | 19° |
| 2026-05-05 21:09 | 35.53857 | 24.14109 | 422 ft | 0 kts | 23° |